Time;durP1;ratioP1;P1;durP2;ratioP2;P2;SDS_P1;SDS_P2;PMS_P1;PMS_P2;Temp;Humidity;BMP_temperature;BMP_pressure;BME280_temperature;BME280_humidity;BME280_pressure;Samples;Min_cycle;Max_cycle;Signal;HPM_P1;HPM_P2
2023/03/27 00:01:20;;;;;;;2.47;0.77;;;15.70;64.30;;;;;;5094161;28;20028;-82
2023/03/27 00:03:49;;;;;;;0.90;0.35;;;15.70;55.40;;;;;;5094452;28;20036;-82
2023/03/27 00:06:16;;;;;;;2.75;0.50;;;15.70;55.40;;;;;;5094509;28;20065;-82
2023/03/27 00:08:45;;;;;;;1.33;0.40;;;15.70;55.50;;;;;;5094478;28;20016;-81
2023/03/27 00:11:12;;;;;;;1.30;0.45;;;15.70;55.50;;;;;;5094021;28;20486;-81
2023/03/27 00:13:39;;;;;;;1.55;0.50;;;15.70;55.50;;;;;;5094198;28;20470;-81
2023/03/27 00:16:05;;;;;;;1.20;0.40;;;15.70;55.50;;;;;;5093445;28;20422;-81
2023/03/27 00:18:32;;;;;;;1.63;0.40;;;15.70;55.60;;;;;;5093757;28;20044;-80
2023/03/27 00:20:59;;;;;;;0.82;0.40;;;15.70;55.60;;;;;;5109514;28;20016;-81
2023/03/27 00:23:28;;;;;;;0.47;0.20;;;15.70;55.60;;;;;;5093789;28;20052;-81
2023/03/27 00:25:56;;;;;;;1.52;0.30;;;15.70;55.60;;;;;;5093603;28;20043;-81
2023/03/27 00:28:23;;;;;;;1.02;0.40;;;15.60;55.50;;;;;;5093587;28;20024;-81
2023/03/27 00:30:48;;;;;;;1.15;0.50;;;15.60;55.50;;;;;;5093714;28;20078;-81
2023/03/27 00:33:14;;;;;;;0.63;0.43;;;15.60;55.50;;;;;;5093690;28;20487;-80
2023/03/27 00:35:45;;;;;;;0.88;0.30;;;15.60;55.50;;;;;;5093503;28;20024;-80
2023/03/27 00:38:11;;;;;;;1.00;0.40;;;15.60;55.60;;;;;;5093494;28;20325;-82
2023/03/27 00:40:36;;;;;;;1.27;0.40;;;15.60;55.50;;;;;;5093445;28;20073;-82
2023/03/27 00:43:39;;;;;;;0.77;0.30;;;15.60;55.60;;;;;;5093575;28;20471;-81
2023/03/27 00:46:06;;;;;;;1.00;0.30;;;15.60;56.20;;;;;;5093351;28;20178;-82
2023/03/27 00:48:35;;;;;;;0.68;0.45;;;15.60;55.60;;;;;;5093551;28;20152;-81
2023/03/27 00:51:04;;;;;;;1.60;0.55;;;15.60;55.60;;;;;;5093217;28;20020;-82
2023/03/27 00:53:31;;;;;;;1.63;0.43;;;15.60;55.60;;;;;;5093434;28;20026;-82
2023/03/27 00:56:02;;;;;;;1.05;0.50;;;15.60;55.60;;;;;;5093517;28;20016;-82
2023/03/27 00:58:32;;;;;;;0.98;0.40;;;15.60;55.60;;;;;;5093005;28;20032;-82
2023/03/27 01:00:58;;;;;;;1.15;0.40;;;15.60;55.60;;;;;;5093137;28;20020;-82
2023/03/27 01:03:29;;;;;;;0.90;0.40;;;15.50;55.50;;;;;;5092926;28;20095;-81
2023/03/27 01:05:57;;;;;;;2.00;0.55;;;15.60;55.60;;;;;;5093333;28;20027;-80
2023/03/27 01:08:24;;;;;;;0.82;0.40;;;15.50;55.50;;;;;;5093186;28;20024;-80
2023/03/27 01:11:14;;;;;;;0.93;0.43;;;15.50;55.50;;;;;;5092964;28;20024;-80
2023/03/27 01:14:18;;;;;;;1.33;0.40;;;15.50;55.50;;;;;;5093141;28;20090;-80
2023/03/27 01:16:49;;;;;;;0.38;0.30;;;15.50;55.50;;;;;;5093080;28;20386;-81
2023/03/27 01:19:29;;;;;;;1.17;0.40;;;15.50;55.60;;;;;;5092780;28;20032;-81
2023/03/27 01:22:28;;;;;;;0.57;0.20;;;15.50;55.50;;;;;;5093067;28;20024;-71
2023/03/27 01:25:17;;;;;;;1.52;0.43;;;15.50;55.50;;;;;;5092590;28;20048;-73
2023/03/27 01:28:36;;;;;;;1.53;0.53;;;15.50;55.60;;;;;;5081008;28;20036;-73
2023/03/27 01:31:04;;;;;;;0.77;0.40;;;15.50;55.50;;;;;;5070008;28;20573;-71
2023/03/27 01:33:49;;;;;;;0.85;0.30;;;15.40;55.50;;;;;;5069870;28;20111;-71
2023/03/27 01:36:23;;;;;;;0.63;0.30;;;15.50;55.50;;;;;;5086122;28;20040;-73
2023/03/27 01:39:11;;;;;;;1.38;0.50;;;15.50;55.60;;;;;;5092557;28;20128;-82
2023/03/27 01:41:53;;;;;;;1.17;0.40;;;15.50;55.50;;;;;;5092406;28;20503;-82
2023/03/27 01:44:31;;;;;;;0.30;0.20;;;15.40;55.50;;;;;;5092418;28;20032;-82
2023/03/27 01:47:08;;;;;;;0.70;0.40;;;15.50;55.80;;;;;;5092397;28;20590;-82
2023/03/27 01:49:39;;;;;;;0.40;0.30;;;15.40;55.50;;;;;;5092330;28;20024;-82
2023/03/27 01:52:13;;;;;;;0.80;0.40;;;15.50;55.60;;;;;;5092703;28;20036;-82
2023/03/27 01:54:48;;;;;;;1.23;0.28;;;15.40;55.50;;;;;;5092337;28;20032;-82
2023/03/27 01:57:36;;;;;;;0.65;0.28;;;15.40;55.50;;;;;;5092299;28;20032;-82
2023/03/27 02:00:16;;;;;;;1.77;0.45;;;15.40;55.50;;;;;;5076591;28;20030;-82
2023/03/27 02:02:46;;;;;;;0.45;0.28;;;15.40;55.50;;;;;;5075893;28;20051;-81
2023/03/27 02:05:27;;;;;;;0.73;0.20;;;15.40;55.50;;;;;;5074683;28;20066;-82
2023/03/27 02:08:00;;;;;;;0.80;0.28;;;15.40;55.50;;;;;;5075542;28;20097;-82
2023/03/27 02:10:35;;;;;;;0.95;0.32;;;15.40;55.50;;;;;;5074658;28;20056;-81
2023/03/27 02:13:07;;;;;;;0.88;0.30;;;15.40;55.60;;;;;;5074792;28;20039;-81
2023/03/27 02:15:37;;;;;;;1.13;0.50;;;15.40;55.50;;;;;;5074653;28;20490;-82
2023/03/27 02:18:11;;;;;;;0.40;0.25;;;15.40;55.60;;;;;;5074706;28;20056;-82
2023/03/27 02:20:39;;;;;;;1.10;0.50;;;15.40;55.50;;;;;;5074709;28;20025;-82
2023/03/27 02:23:06;;;;;;;1.65;0.55;;;15.30;55.50;;;;;;5074634;28;20036;-82
2023/03/27 02:25:40;;;;;;;1.00;0.43;;;15.30;55.50;;;;;;5074035;28;20203;-82
2023/03/27 02:28:40;;;;;;;1.23;0.38;;;15.30;55.40;;;;;;5092260;28;20020;-82
2023/03/27 02:31:24;;;;;;;0.68;0.40;;;15.30;55.40;;;;;;5092181;28;20020;-82
2023/03/27 02:34:15;;;;;;;1.30;0.50;;;15.30;55.40;;;;;;5091962;28;20020;-82
2023/03/27 02:36:47;;;;;;;1.45;0.38;;;15.30;55.40;;;;;;5092226;28;20095;-83
2023/03/27 02:39:33;;;;;;;1.08;0.47;;;15.30;55.40;;;;;;5094138;28;20372;-82
2023/03/27 02:42:08;;;;;;;1.23;0.40;;;15.30;55.50;;;;;;5095758;28;20099;-82
2023/03/27 02:44:50;;;;;;;1.48;0.40;;;15.30;55.40;;;;;;5095965;28;20020;-82
2023/03/27 02:47:31;;;;;;;1.00;0.50;;;15.30;56.10;;;;;;5095934;28;20051;-82
2023/03/27 02:50:08;;;;;;;0.68;0.30;;;15.20;55.40;;;;;;5095923;28;20466;-82
2023/03/27 02:52:42;;;;;;;0.60;0.28;;;15.30;55.50;;;;;;5095717;28;20527;-82
2023/03/27 02:55:20;;;;;;;0.55;0.30;;;15.20;55.40;;;;;;5095767;28;20020;-82
2023/03/27 02:57:50;;;;;;;0.73;0.40;;;15.30;55.50;;;;;;5095886;28;20035;-82
2023/03/27 03:00:23;;;;;;;0.47;0.28;;;15.20;55.40;;;;;;5095387;28;20042;-82
2023/03/27 03:02:57;;;;;;;1.40;0.40;;;15.20;55.50;;;;;;5095379;28;20059;-83
2023/03/27 03:05:25;;;;;;;2.00;0.30;;;15.20;55.40;;;;;;5094209;28;20020;-83
2023/03/27 03:07:53;;;;;;;1.08;0.30;;;15.20;55.50;;;;;;5095281;28;20470;-82
2023/03/27 03:10:20;;;;;;;0.68;0.40;;;15.20;55.50;;;;;;5095612;28;20024;-82
2023/03/27 03:12:46;;;;;;;0.70;0.50;;;15.20;55.50;;;;;;5095507;28;20047;-82
2023/03/27 03:15:12;;;;;;;1.02;0.35;;;15.20;55.70;;;;;;5095364;28;20073;-82
2023/03/27 03:17:38;;;;;;;0.95;0.32;;;15.10;55.90;;;;;;5095275;28;20039;-82
2023/03/27 03:20:06;;;;;;;1.13;0.30;;;15.10;56.10;;;;;;5094951;28;20028;-82
2023/03/27 03:22:32;;;;;;;0.50;0.35;;;15.10;56.10;;;;;;5095246;28;20074;-82
2023/03/27 03:24:58;;;;;;;1.65;0.50;;;15.00;56.10;;;;;;5094919;28;20113;-82
2023/03/27 03:27:27;;;;;;;0.93;0.40;;;15.00;56.10;;;;;;5095221;28;20110;-82
2023/03/27 03:29:55;;;;;;;0.90;0.40;;;15.00;56.20;;;;;;5095294;28;20104;-81
2023/03/27 03:32:22;;;;;;;1.23;0.30;;;15.00;56.20;;;;;;5095083;28;20098;-81
2023/03/27 03:34:48;;;;;;;0.75;0.40;;;15.00;56.20;;;;;;5095065;28;20363;-81
2023/03/27 03:37:14;;;;;;;0.55;0.40;;;15.00;56.20;;;;;;5094922;28;20028;-81
2023/03/27 03:39:40;;;;;;;1.20;0.47;;;15.10;56.20;;;;;;5094937;28;20101;-82
2023/03/27 03:42:06;;;;;;;0.68;0.20;;;15.00;56.20;;;;;;5094897;28;20012;-82
2023/03/27 03:44:33;;;;;;;0.98;0.20;;;15.10;56.20;;;;;;5094848;28;20020;-82
2023/03/27 03:46:59;;;;;;;0.85;0.30;;;15.10;56.10;;;;;;5095035;28;20040;-72
2023/03/27 03:49:25;;;;;;;0.63;0.30;;;15.10;56.10;;;;;;5094218;28;20036;-72
2023/03/27 03:51:51;;;;;;;1.05;0.30;;;15.10;56.10;;;;;;5093635;28;20100;-72
2023/03/27 03:54:17;;;;;;;1.73;0.40;;;15.10;56.00;;;;;;5094638;28;20052;-72
2023/03/27 03:56:43;;;;;;;0.43;0.25;;;15.10;55.80;;;;;;5094247;28;20387;-72
2023/03/27 03:59:13;;;;;;;0.45;0.28;;;15.10;55.70;;;;;;5094082;28;20028;-72
2023/03/27 04:01:39;;;;;;;0.68;0.20;;;15.10;64.80;;;;;;5415902;22;20016;-71
2023/03/27 04:04:08;;;;;;;0.90;0.35;;;15.10;55.80;;;;;;5050816;28;20036;-72
2023/03/27 04:06:36;;;;;;;0.38;0.20;;;15.10;55.80;;;;;;5053922;28;20083;-72
